sensor_id;sensor_type;location;lat;lon;timestamp;P1;durP1;ratioP1;P2;durP2;ratioP2
15408;SDS011;7803;48.130;13.788;2023-12-14T00:02:54;8.55;;;7.72;;
15408;SDS011;7803;48.130;13.788;2023-12-14T00:05:56;8.82;;;7.93;;
15408;SDS011;7803;48.130;13.788;2023-12-14T00:08:57;8.63;;;7.82;;
15408;SDS011;7803;48.130;13.788;2023-12-14T00:11:59;8.02;;;7.32;;
15408;SDS011;7803;48.130;13.788;2023-12-14T00:15:03;8.25;;;7.45;;
15408;SDS011;7803;48.130;13.788;2023-12-14T00:18:06;7.95;;;7.15;;
15408;SDS011;7803;48.130;13.788;2023-12-14T00:21:07;7.25;;;6.10;;
15408;SDS011;7803;48.130;13.788;2023-12-14T00:24:09;6.65;;;5.95;;
15408;SDS011;7803;48.130;13.788;2023-12-14T00:27:11;6.85;;;6.00;;
15408;SDS011;7803;48.130;13.788;2023-12-14T00:30:15;7.53;;;6.55;;
15408;SDS011;7803;48.130;13.788;2023-12-14T00:33:17;6.72;;;6.13;;
15408;SDS011;7803;48.130;13.788;2023-12-14T00:36:19;7.35;;;6.53;;
15408;SDS011;7803;48.130;13.788;2023-12-14T00:39:21;7.72;;;6.85;;
15408;SDS011;7803;48.130;13.788;2023-12-14T00:42:23;7.03;;;6.43;;
15408;SDS011;7803;48.130;13.788;2023-12-14T00:45:26;7.22;;;6.53;;
15408;SDS011;7803;48.130;13.788;2023-12-14T00:48:28;7.10;;;6.43;;
15408;SDS011;7803;48.130;13.788;2023-12-14T00:51:30;7.68;;;6.60;;
15408;SDS011;7803;48.130;13.788;2023-12-14T00:54:32;7.05;;;6.32;;
15408;SDS011;7803;48.130;13.788;2023-12-14T00:57:34;7.85;;;6.95;;
15408;SDS011;7803;48.130;13.788;2023-12-14T01:00:37;6.80;;;6.20;;
15408;SDS011;7803;48.130;13.788;2023-12-14T01:03:39;6.78;;;6.18;;
15408;SDS011;7803;48.130;13.788;2023-12-14T01:06:41;6.88;;;6.28;;
15408;SDS011;7803;48.130;13.788;2023-12-14T01:09:43;7.45;;;6.55;;
15408;SDS011;7803;48.130;13.788;2023-12-14T01:12:45;7.32;;;6.63;;
15408;SDS011;7803;48.130;13.788;2023-12-14T01:15:48;7.10;;;6.40;;
15408;SDS011;7803;48.130;13.788;2023-12-14T01:18:50;7.40;;;6.70;;
15408;SDS011;7803;48.130;13.788;2023-12-14T01:21:52;7.35;;;6.65;;
15408;SDS011;7803;48.130;13.788;2023-12-14T01:24:55;7.75;;;7.05;;
15408;SDS011;7803;48.130;13.788;2023-12-14T01:27:57;7.45;;;6.75;;
15408;SDS011;7803;48.130;13.788;2023-12-14T01:31:01;7.68;;;6.90;;
15408;SDS011;7803;48.130;13.788;2023-12-14T01:34:03;7.68;;;6.97;;
15408;SDS011;7803;48.130;13.788;2023-12-14T01:37:05;7.43;;;6.72;;
15408;SDS011;7803;48.130;13.788;2023-12-14T01:40:08;7.30;;;6.60;;
15408;SDS011;7803;48.130;13.788;2023-12-14T01:43:10;8.13;;;7.32;;
15408;SDS011;7803;48.130;13.788;2023-12-14T01:46:14;8.27;;;7.18;;
15408;SDS011;7803;48.130;13.788;2023-12-14T01:49:16;8.45;;;7.13;;
15408;SDS011;7803;48.130;13.788;2023-12-14T01:52:18;7.07;;;6.43;;
15408;SDS011;7803;48.130;13.788;2023-12-14T01:55:20;7.28;;;6.57;;
15408;SDS011;7803;48.130;13.788;2023-12-14T01:58:22;9.13;;;7.20;;
15408;SDS011;7803;48.130;13.788;2023-12-14T02:01:28;7.50;;;6.80;;
15408;SDS011;7803;48.130;13.788;2023-12-14T02:04:35;7.55;;;6.85;;
15408;SDS011;7803;48.130;13.788;2023-12-14T02:07:37;7.97;;;7.18;;
15408;SDS011;7803;48.130;13.788;2023-12-14T02:10:39;7.68;;;6.90;;
15408;SDS011;7803;48.130;13.788;2023-12-14T02:13:41;7.72;;;6.93;;
15408;SDS011;7803;48.130;13.788;2023-12-14T02:16:45;7.55;;;6.82;;
15408;SDS011;7803;48.130;13.788;2023-12-14T02:19:47;7.40;;;6.65;;
15408;SDS011;7803;48.130;13.788;2023-12-14T02:22:50;7.50;;;6.80;;
15408;SDS011;7803;48.130;13.788;2023-12-14T02:25:52;7.55;;;6.85;;
15408;SDS011;7803;48.130;13.788;2023-12-14T02:28:54;7.63;;;6.93;;
15408;SDS011;7803;48.130;13.788;2023-12-14T02:31:56;7.07;;;6.40;;
15408;SDS011;7803;48.130;13.788;2023-12-14T02:34:58;7.95;;;7.15;;
15408;SDS011;7803;48.130;13.788;2023-12-14T02:38:01;7.93;;;7.13;;
15408;SDS011;7803;48.130;13.788;2023-12-14T02:41:03;10.88;;;8.15;;
15408;SDS011;7803;48.130;13.788;2023-12-14T02:44:05;7.43;;;6.65;;
15408;SDS011;7803;48.130;13.788;2023-12-14T02:47:07;7.80;;;7.10;;
15408;SDS011;7803;48.130;13.788;2023-12-14T02:50:09;7.93;;;7.13;;
15408;SDS011;7803;48.130;13.788;2023-12-14T02:53:13;7.50;;;6.80;;
15408;SDS011;7803;48.130;13.788;2023-12-14T02:56:15;7.18;;;6.53;;
15408;SDS011;7803;48.130;13.788;2023-12-14T02:59:17;7.07;;;6.38;;
15408;SDS011;7803;48.130;13.788;2023-12-14T03:02:19;8.43;;;7.40;;
15408;SDS011;7803;48.130;13.788;2023-12-14T03:05:21;7.30;;;6.60;;
15408;SDS011;7803;48.130;13.788;2023-12-14T03:08:24;9.55;;;7.70;;
15408;SDS011;7803;48.130;13.788;2023-12-14T03:11:26;7.32;;;6.63;;
15408;SDS011;7803;48.130;13.788;2023-12-14T03:14:31;7.05;;;6.45;;
15408;SDS011;7803;48.130;13.788;2023-12-14T03:17:33;7.30;;;6.60;;
15408;SDS011;7803;48.130;13.788;2023-12-14T03:20:35;7.35;;;6.65;;
15408;SDS011;7803;48.130;13.788;2023-12-14T03:23:39;7.82;;;7.03;;
15408;SDS011;7803;48.130;13.788;2023-12-14T03:26:41;7.55;;;6.85;;
15408;SDS011;7803;48.130;13.788;2023-12-14T03:29:42;8.10;;;6.97;;
15408;SDS011;7803;48.130;13.788;2023-12-14T03:32:44;7.60;;;6.80;;
15408;SDS011;7803;48.130;13.788;2023-12-14T03:35:46;7.38;;;6.68;;
15408;SDS011;7803;48.130;13.788;2023-12-14T03:38:50;7.00;;;6.38;;
15408;SDS011;7803;48.130;13.788;2023-12-14T03:41:52;6.82;;;6.22;;
15408;SDS011;7803;48.130;13.788;2023-12-14T03:44:53;7.00;;;6.30;;
15408;SDS011;7803;48.130;13.788;2023-12-14T03:47:55;7.68;;;6.68;;
15408;SDS011;7803;48.130;13.788;2023-12-14T03:50:57;7.25;;;6.47;;
15408;SDS011;7803;48.130;13.788;2023-12-14T03:54:04;6.88;;;6.20;;
15408;SDS011;7803;48.130;13.788;2023-12-14T03:57:06;9.70;;;7.35;;
15408;SDS011;7803;48.130;13.788;2023-12-14T04:00:10;7.25;;;6.55;;
15408;SDS011;7803;48.130;13.788;2023-12-14T04:03:17;6.65;;;6.03;;
15408;SDS011;7803;48.130;13.788;2023-12-14T04:06:19;6.30;;;5.72;;
15408;SDS011;7803;48.130;13.788;2023-12-14T04:09:23;6.68;;;6.07;;
15408;SDS011;7803;48.130;13.788;2023-12-14T04:12:25;6.60;;;6.00;;
15408;SDS011;7803;48.130;13.788;2023-12-14T04:15:27;6.75;;;6.13;;
15408;SDS011;7803;48.130;13.788;2023-12-14T04:18:29;6.80;;;6.20;;
15408;SDS011;7803;48.130;13.788;2023-12-14T04:21:31;6.80;;;6.20;;
15408;SDS011;7803;48.130;13.788;2023-12-14T04:24:34;6.78;;;6.07;;
15408;SDS011;7803;48.130;13.788;2023-12-14T04:27:36;7.78;;;6.47;;
15408;SDS011;7803;48.130;13.788;2023-12-14T04:30:38;7.50;;;6.72;;
15408;SDS011;7803;48.130;13.788;2023-12-14T04:33:40;7.45;;;6.53;;
15408;SDS011;7803;48.130;13.788;2023-12-14T04:36:42;6.90;;;6.20;;
15408;SDS011;7803;48.130;13.788;2023-12-14T04:39:46;6.47;;;5.88;;
15408;SDS011;7803;48.130;13.788;2023-12-14T04:42:48;6.22;;;5.63;;
15408;SDS011;7803;48.130;13.788;2023-12-14T04:45:50;6.50;;;5.90;;
15408;SDS011;7803;48.130;13.788;2023-12-14T04:48:52;6.32;;;5.72;;
15408;SDS011;7803;48.130;13.788;2023-12-14T04:51:54;7.45;;;6.03;;
15408;SDS011;7803;48.130;13.788;2023-12-14T04:54:57;6.28;;;5.65;;
15408;SDS011;7803;48.130;13.788;2023-12-14T04:57:59;6.13;;;5.53;;
15408;SDS011;7803;48.130;13.788;2023-12-14T05:01:01;6.20;;;5.60;;
15408;SDS011;7803;48.130;13.788;2023-12-14T05:04:03;6.88;;;5.38;;
15408;SDS011;7803;48.130;13.788;2023-12-14T05:07:05;6.03;;;5.32;;
15408;SDS011;7803;48.130;13.788;2023-12-14T05:10:09;6.07;;;5.40;;
15408;SDS011;7803;48.130;13.788;2023-12-14T05:13:11;5.82;;;5.32;;
15408;SDS011;7803;48.130;13.788;2023-12-14T05:16:13;6.20;;;5.60;;
15408;SDS011;7803;48.130;13.788;2023-12-14T05:19:15;7.88;;;5.90;;
15408;SDS011;7803;48.130;13.788;2023-12-14T05:22:18;6.57;;;5.88;;
15408;SDS011;7803;48.130;13.788;2023-12-14T05:25:21;6.22;;;5.63;;
15408;SDS011;7803;48.130;13.788;2023-12-14T05:28:23;7.30;;;6.13;;
15408;SDS011;7803;48.130;13.788;2023-12-14T05:31:25;6.75;;;5.88;;
15408;SDS011;7803;48.130;13.788;2023-12-14T05:34:27;5.85;;;5.35;;
15408;SDS011;7803;48.130;13.788;2023-12-14T05:37:29;6.28;;;5.68;;
15408;SDS011;7803;48.130;13.788;2023-12-14T05:40:32;7.40;;;5.80;;
15408;SDS011;7803;48.130;13.788;2023-12-14T05:43:34;5.88;;;5.38;;
15408;SDS011;7803;48.130;13.788;2023-12-14T05:46:36;6.00;;;5.50;;
15408;SDS011;7803;48.130;13.788;2023-12-14T05:49:40;5.97;;;5.47;;
15408;SDS011;7803;48.130;13.788;2023-12-14T05:52:42;6.78;;;5.95;;
15408;SDS011;7803;48.130;13.788;2023-12-14T05:55:47;6.15;;;5.55;;
15408;SDS011;7803;48.130;13.788;2023-12-14T05:58:49;6.15;;;4.93;;
15408;SDS011;7803;48.130;13.788;2023-12-14T06:01:56;6.00;;;4.93;;
15408;SDS011;7803;48.130;13.788;2023-12-14T06:04:58;5.32;;;4.82;;
15408;SDS011;7803;48.130;13.788;2023-12-14T06:08:00;5.10;;;4.10;;
15408;SDS011;7803;48.130;13.788;2023-12-14T06:11:04;4.63;;;4.10;;
15408;SDS011;7803;48.130;13.788;2023-12-14T06:14:06;4.97;;;4.57;;
15408;SDS011;7803;48.130;13.788;2023-12-14T06:17:08;5.53;;;4.65;;
15408;SDS011;7803;48.130;13.788;2023-12-14T06:20:11;5.10;;;4.57;;
15408;SDS011;7803;48.130;13.788;2023-12-14T06:23:13;5.90;;;4.78;;
15408;SDS011;7803;48.130;13.788;2023-12-14T06:26:16;4.75;;;4.35;;
15408;SDS011;7803;48.130;13.788;2023-12-14T06:29:18;4.97;;;4.47;;
15408;SDS011;7803;48.130;13.788;2023-12-14T06:32:20;5.00;;;4.50;;
15408;SDS011;7803;48.130;13.788;2023-12-14T06:35:22;5.28;;;4.40;;
15408;SDS011;7803;48.130;13.788;2023-12-14T06:38:24;4.68;;;4.28;;
15408;SDS011;7803;48.130;13.788;2023-12-14T06:41:28;4.82;;;4.38;;
15408;SDS011;7803;48.130;13.788;2023-12-14T06:44:30;5.25;;;4.38;;
15408;SDS011;7803;48.130;13.788;2023-12-14T06:47:32;4.50;;;4.10;;
15408;SDS011;7803;48.130;13.788;2023-12-14T06:50:34;4.60;;;4.07;;
15408;SDS011;7803;48.130;13.788;2023-12-14T06:53:36;4.82;;;4.18;;
15408;SDS011;7803;48.130;13.788;2023-12-14T06:56:42;4.80;;;4.30;;
15408;SDS011;7803;48.130;13.788;2023-12-14T06:59:44;4.93;;;4.15;;
15408;SDS011;7803;48.130;13.788;2023-12-14T07:02:46;4.80;;;4.35;;
15408;SDS011;7803;48.130;13.788;2023-12-14T07:05:48;4.55;;;4.15;;
15408;SDS011;7803;48.130;13.788;2023-12-14T07:08:50;4.40;;;4.00;;
15408;SDS011;7803;48.130;13.788;2023-12-14T07:11:54;4.30;;;3.90;;
15408;SDS011;7803;48.130;13.788;2023-12-14T07:14:56;4.40;;;4.00;;
15408;SDS011;7803;48.130;13.788;2023-12-14T07:17:57;4.80;;;4.20;;
15408;SDS011;7803;48.130;13.788;2023-12-14T07:20:59;4.65;;;4.15;;
15408;SDS011;7803;48.130;13.788;2023-12-14T07:24:01;4.82;;;3.95;;
15408;SDS011;7803;48.130;13.788;2023-12-14T07:27:05;4.60;;;4.20;;
15408;SDS011;7803;48.130;13.788;2023-12-14T07:30:07;4.43;;;4.03;;
15408;SDS011;7803;48.130;13.788;2023-12-14T07:33:11;4.70;;;4.30;;
15408;SDS011;7803;48.130;13.788;2023-12-14T07:36:13;4.68;;;4.15;;
15408;SDS011;7803;48.130;13.788;2023-12-14T07:39:15;4.63;;;3.92;;
15408;SDS011;7803;48.130;13.788;2023-12-14T07:42:18;4.85;;;4.35;;
15408;SDS011;7803;48.130;13.788;2023-12-14T07:45:20;4.68;;;4.18;;
15408;SDS011;7803;48.130;13.788;2023-12-14T07:48:22;4.32;;;3.90;;
15408;SDS011;7803;48.130;13.788;2023-12-14T07:51:24;4.45;;;4.05;;
15408;SDS011;7803;48.130;13.788;2023-12-14T07:54:26;5.45;;;4.00;;
15408;SDS011;7803;48.130;13.788;2023-12-14T07:57:30;4.57;;;3.75;;
15408;SDS011;7803;48.130;13.788;2023-12-14T08:00:32;5.03;;;3.90;;
15408;SDS011;7803;48.130;13.788;2023-12-14T08:03:34;4.85;;;4.20;;
15408;SDS011;7803;48.130;13.788;2023-12-14T08:06:37;5.97;;;4.18;;
15408;SDS011;7803;48.130;13.788;2023-12-14T08:09:39;4.85;;;3.90;;
15408;SDS011;7803;48.130;13.788;2023-12-14T08:12:42;4.40;;;4.00;;
15408;SDS011;7803;48.130;13.788;2023-12-14T08:15:44;4.28;;;3.72;;
15408;SDS011;7803;48.130;13.788;2023-12-14T08:18:46;4.38;;;3.97;;
15408;SDS011;7803;48.130;13.788;2023-12-14T08:21:48;4.35;;;3.95;;
15408;SDS011;7803;48.130;13.788;2023-12-14T08:24:50;5.50;;;4.20;;
15408;SDS011;7803;48.130;13.788;2023-12-14T08:27:53;4.18;;;3.78;;
15408;SDS011;7803;48.130;13.788;2023-12-14T08:30:55;4.05;;;3.65;;
15408;SDS011;7803;48.130;13.788;2023-12-14T08:33:59;4.53;;;4.13;;
15408;SDS011;7803;48.130;13.788;2023-12-14T08:37:01;4.57;;;4.13;;
15408;SDS011;7803;48.130;13.788;2023-12-14T08:40:03;4.55;;;4.13;;
15408;SDS011;7803;48.130;13.788;2023-12-14T08:43:07;4.25;;;3.85;;
15408;SDS011;7803;48.130;13.788;2023-12-14T08:46:10;4.20;;;3.80;;
15408;SDS011;7803;48.130;13.788;2023-12-14T08:49:12;4.13;;;3.72;;
15408;SDS011;7803;48.130;13.788;2023-12-14T08:52:17;4.30;;;3.90;;
15408;SDS011;7803;48.130;13.788;2023-12-14T08:55:19;4.10;;;3.70;;
15408;SDS011;7803;48.130;13.788;2023-12-14T08:58:23;4.35;;;3.95;;
15408;SDS011;7803;48.130;13.788;2023-12-14T09:01:25;4.93;;;4.22;;
15408;SDS011;7803;48.130;13.788;2023-12-14T09:04:27;5.50;;;4.40;;
15408;SDS011;7803;48.130;13.788;2023-12-14T09:07:29;4.60;;;4.18;;
15408;SDS011;7803;48.130;13.788;2023-12-14T09:10:31;5.93;;;4.40;;
15408;SDS011;7803;48.130;13.788;2023-12-14T09:13:35;5.05;;;4.55;;
15408;SDS011;7803;48.130;13.788;2023-12-14T09:16:37;4.60;;;4.20;;
15408;SDS011;7803;48.130;13.788;2023-12-14T09:19:39;5.28;;;4.78;;
15408;SDS011;7803;48.130;13.788;2023-12-14T09:22:40;5.57;;;5.07;;
15408;SDS011;7803;48.130;13.788;2023-12-14T09:25:43;6.90;;;6.03;;
15408;SDS011;7803;48.130;13.788;2023-12-14T09:28:46;5.70;;;5.20;;
15408;SDS011;7803;48.130;13.788;2023-12-14T09:31:48;6.05;;;5.45;;
15408;SDS011;7803;48.130;13.788;2023-12-14T09:34:50;6.20;;;5.60;;
15408;SDS011;7803;48.130;13.788;2023-12-14T09:37:56;6.78;;;6.18;;
15408;SDS011;7803;48.130;13.788;2023-12-14T09:40:58;7.15;;;6.30;;
15408;SDS011;7803;48.130;13.788;2023-12-14T09:44:01;7.03;;;6.32;;
15408;SDS011;7803;48.130;13.788;2023-12-14T09:47:05;8.50;;;7.20;;
15408;SDS011;7803;48.130;13.788;2023-12-14T09:50:08;7.88;;;7.07;;
15408;SDS011;7803;48.130;13.788;2023-12-14T09:53:10;7.00;;;6.40;;
15408;SDS011;7803;48.130;13.788;2023-12-14T09:56:12;8.40;;;7.43;;
15408;SDS011;7803;48.130;13.788;2023-12-14T09:59:15;7.30;;;6.60;;
15408;SDS011;7803;48.130;13.788;2023-12-14T10:02:17;7.78;;;6.97;;
15408;SDS011;7803;48.130;13.788;2023-12-14T10:05:20;8.02;;;7.30;;
15408;SDS011;7803;48.130;13.788;2023-12-14T10:08:22;8.05;;;7.30;;
15408;SDS011;7803;48.130;13.788;2023-12-14T10:11:24;7.57;;;6.88;;
15408;SDS011;7803;48.130;13.788;2023-12-14T10:14:28;8.65;;;7.85;;
15408;SDS011;7803;48.130;13.788;2023-12-14T10:17:30;8.48;;;7.68;;
15408;SDS011;7803;48.130;13.788;2023-12-14T10:20:32;8.63;;;7.82;;
15408;SDS011;7803;48.130;13.788;2023-12-14T10:23:34;8.45;;;7.65;;
15408;SDS011;7803;48.130;13.788;2023-12-14T10:26:36;9.00;;;8.10;;
15408;SDS011;7803;48.130;13.788;2023-12-14T10:29:39;9.70;;;8.70;;
15408;SDS011;7803;48.130;13.788;2023-12-14T10:32:42;9.25;;;8.35;;
15408;SDS011;7803;48.130;13.788;2023-12-14T10:35:44;9.88;;;8.88;;
15408;SDS011;7803;48.130;13.788;2023-12-14T10:38:47;10.48;;;9.35;;
15408;SDS011;7803;48.130;13.788;2023-12-14T10:41:53;10.93;;;9.82;;
15408;SDS011;7803;48.130;13.788;2023-12-14T10:44:59;11.13;;;10.00;;
15408;SDS011;7803;48.130;13.788;2023-12-14T10:48:04;11.90;;;10.70;;
15408;SDS011;7803;48.130;13.788;2023-12-14T10:51:08;12.32;;;10.70;;
15408;SDS011;7803;48.130;13.788;2023-12-14T10:54:11;13.13;;;11.73;;
15408;SDS011;7803;48.130;13.788;2023-12-14T10:57:13;13.98;;;11.50;;
15408;SDS011;7803;48.130;13.788;2023-12-14T11:00:17;13.10;;;11.70;;
15408;SDS011;7803;48.130;13.788;2023-12-14T11:03:19;14.40;;;12.30;;
15408;SDS011;7803;48.130;13.788;2023-12-14T11:06:29;16.27;;;14.05;;
15408;SDS011;7803;48.130;13.788;2023-12-14T11:09:32;162.48;;;72.70;;
15408;SDS011;7803;48.130;13.788;2023-12-14T11:12:34;44.67;;;29.25;;
15408;SDS011;7803;48.130;13.788;2023-12-14T11:15:37;37.63;;;25.08;;
15408;SDS011;7803;48.130;13.788;2023-12-14T11:18:40;32.75;;;23.52;;
15408;SDS011;7803;48.130;13.788;2023-12-14T11:21:42;34.80;;;23.30;;
15408;SDS011;7803;48.130;13.788;2023-12-14T11:24:50;29.25;;;21.85;;
15408;SDS011;7803;48.130;13.788;2023-12-14T11:27:53;27.45;;;21.00;;
15408;SDS011;7803;48.130;13.788;2023-12-14T11:30:57;29.30;;;20.75;;
15408;SDS011;7803;48.130;13.788;2023-12-14T11:33:59;27.27;;;20.65;;
15408;SDS011;7803;48.130;13.788;2023-12-14T11:37:04;29.77;;;21.40;;
15408;SDS011;7803;48.130;13.788;2023-12-14T11:40:07;29.25;;;22.05;;
15408;SDS011;7803;48.130;13.788;2023-12-14T11:43:10;27.75;;;22.00;;
15408;SDS011;7803;48.130;13.788;2023-12-14T11:46:14;28.10;;;22.00;;
15408;SDS011;7803;48.130;13.788;2023-12-14T11:49:16;29.20;;;22.27;;
15408;SDS011;7803;48.130;13.788;2023-12-14T11:52:18;29.25;;;22.85;;
15408;SDS011;7803;48.130;13.788;2023-12-14T11:55:20;31.65;;;23.55;;
15408;SDS011;7803;48.130;13.788;2023-12-14T11:58:22;31.30;;;23.75;;
15408;SDS011;7803;48.130;13.788;2023-12-14T12:01:27;34.65;;;25.98;;
15408;SDS011;7803;48.130;13.788;2023-12-14T12:04:31;35.75;;;26.45;;
15408;SDS011;7803;48.130;13.788;2023-12-14T12:07:33;37.08;;;27.27;;
15408;SDS011;7803;48.130;13.788;2023-12-14T12:10:36;36.97;;;27.02;;
15408;SDS011;7803;48.130;13.788;2023-12-14T12:13:38;37.65;;;27.38;;
15408;SDS011;7803;48.130;13.788;2023-12-14T12:16:42;41.00;;;28.45;;
15408;SDS011;7803;48.130;13.788;2023-12-14T12:19:44;39.92;;;28.63;;
15408;SDS011;7803;48.130;13.788;2023-12-14T12:22:46;36.95;;;28.33;;
15408;SDS011;7803;48.130;13.788;2023-12-14T12:25:48;38.97;;;29.33;;
15408;SDS011;7803;48.130;13.788;2023-12-14T12:28:50;43.50;;;30.58;;
15408;SDS011;7803;48.130;13.788;2023-12-14T12:31:53;42.20;;;31.50;;
15408;SDS011;7803;48.130;13.788;2023-12-14T12:34:55;44.88;;;31.00;;
15408;SDS011;7803;48.130;13.788;2023-12-14T12:37:57;43.33;;;31.58;;
15408;SDS011;7803;48.130;13.788;2023-12-14T12:40:59;41.63;;;30.83;;
15408;SDS011;7803;48.130;13.788;2023-12-14T12:44:02;42.25;;;30.80;;
15408;SDS011;7803;48.130;13.788;2023-12-14T12:47:07;41.85;;;31.45;;
15408;SDS011;7803;48.130;13.788;2023-12-14T12:50:09;43.15;;;31.55;;
15408;SDS011;7803;48.130;13.788;2023-12-14T12:53:11;42.08;;;31.20;;
15408;SDS011;7803;48.130;13.788;2023-12-14T12:56:13;41.03;;;30.10;;
15408;SDS011;7803;48.130;13.788;2023-12-14T12:59:16;42.35;;;31.52;;
15408;SDS011;7803;48.130;13.788;2023-12-14T13:02:20;39.13;;;30.35;;
15408;SDS011;7803;48.130;13.788;2023-12-14T13:05:22;40.03;;;30.90;;
15408;SDS011;7803;48.130;13.788;2023-12-14T13:08:25;38.50;;;29.77;;
15408;SDS011;7803;48.130;13.788;2023-12-14T13:11:27;39.40;;;30.90;;
15408;SDS011;7803;48.130;13.788;2023-12-14T13:14:29;40.78;;;31.50;;
15408;SDS011;7803;48.130;13.788;2023-12-14T13:17:33;40.42;;;32.10;;
15408;SDS011;7803;48.130;13.788;2023-12-14T13:20:35;38.70;;;30.30;;
15408;SDS011;7803;48.130;13.788;2023-12-14T13:23:37;41.20;;;31.58;;
15408;SDS011;7803;48.130;13.788;2023-12-14T13:26:39;37.65;;;30.73;;
15408;SDS011;7803;48.130;13.788;2023-12-14T13:29:41;41.25;;;32.72;;
15408;SDS011;7803;48.130;13.788;2023-12-14T13:32:45;41.03;;;32.80;;
15408;SDS011;7803;48.130;13.788;2023-12-14T13:35:47;39.67;;;31.73;;
15408;SDS011;7803;48.130;13.788;2023-12-14T13:38:49;42.88;;;32.97;;
15408;SDS011;7803;48.130;13.788;2023-12-14T13:41:51;40.28;;;31.23;;
15408;SDS011;7803;48.130;13.788;2023-12-14T13:44:53;39.47;;;31.77;;
15408;SDS011;7803;48.130;13.788;2023-12-14T13:47:56;39.72;;;31.85;;
15408;SDS011;7803;48.130;13.788;2023-12-14T13:50:59;39.20;;;32.15;;
15408;SDS011;7803;48.130;13.788;2023-12-14T13:54:01;39.55;;;31.27;;
15408;SDS011;7803;48.130;13.788;2023-12-14T13:57:03;39.85;;;31.10;;
15408;SDS011;7803;48.130;13.788;2023-12-14T14:00:06;40.92;;;31.83;;
15408;SDS011;7803;48.130;13.788;2023-12-14T14:03:10;40.92;;;32.08;;
15408;SDS011;7803;48.130;13.788;2023-12-14T14:06:13;39.33;;;31.45;;
15408;SDS011;7803;48.130;13.788;2023-12-14T14:09:15;41.42;;;32.15;;
15408;SDS011;7803;48.130;13.788;2023-12-14T14:12:17;40.00;;;32.05;;
15408;SDS011;7803;48.130;13.788;2023-12-14T14:15:19;40.00;;;31.90;;
15408;SDS011;7803;48.130;13.788;2023-12-14T14:18:22;38.97;;;31.58;;
15408;SDS011;7803;48.130;13.788;2023-12-14T14:21:24;38.28;;;31.02;;
15408;SDS011;7803;48.130;13.788;2023-12-14T14:24:26;38.95;;;31.70;;
15408;SDS011;7803;48.130;13.788;2023-12-14T14:27:28;37.10;;;30.85;;
15408;SDS011;7803;48.130;13.788;2023-12-14T14:30:31;38.22;;;31.05;;
15408;SDS011;7803;48.130;13.788;2023-12-14T14:33:34;39.05;;;32.10;;
15408;SDS011;7803;48.130;13.788;2023-12-14T14:36:36;37.58;;;30.83;;
15408;SDS011;7803;48.130;13.788;2023-12-14T14:39:38;36.22;;;29.77;;
15408;SDS011;7803;48.130;13.788;2023-12-14T14:42:43;39.58;;;31.80;;
15408;SDS011;7803;48.130;13.788;2023-12-14T14:45:45;36.75;;;30.42;;
15408;SDS011;7803;48.130;13.788;2023-12-14T14:48:49;38.40;;;30.85;;
15408;SDS011;7803;48.130;13.788;2023-12-14T14:51:51;35.67;;;30.10;;
15408;SDS011;7803;48.130;13.788;2023-12-14T14:54:52;35.50;;;29.90;;
15408;SDS011;7803;48.130;13.788;2023-12-14T14:57:54;37.50;;;29.75;;
15408;SDS011;7803;48.130;13.788;2023-12-14T15:00:56;35.30;;;29.75;;
15408;SDS011;7803;48.130;13.788;2023-12-14T15:04:00;33.58;;;27.67;;
15408;SDS011;7803;48.130;13.788;2023-12-14T15:07:02;34.15;;;28.73;;
15408;SDS011;7803;48.130;13.788;2023-12-14T15:10:04;35.78;;;28.67;;
15408;SDS011;7803;48.130;13.788;2023-12-14T15:13:07;35.15;;;29.33;;
15408;SDS011;7803;48.130;13.788;2023-12-14T15:16:09;34.80;;;28.58;;
15408;SDS011;7803;48.130;13.788;2023-12-14T15:19:14;32.28;;;27.70;;
15408;SDS011;7803;48.130;13.788;2023-12-14T15:22:16;32.85;;;27.55;;
15408;SDS011;7803;48.130;13.788;2023-12-14T15:25:18;32.55;;;27.15;;
15408;SDS011;7803;48.130;13.788;2023-12-14T15:28:20;33.50;;;28.00;;
15408;SDS011;7803;48.130;13.788;2023-12-14T15:31:22;32.80;;;27.95;;
15408;SDS011;7803;48.130;13.788;2023-12-14T15:34:25;33.42;;;28.58;;
15408;SDS011;7803;48.130;13.788;2023-12-14T15:37:27;33.47;;;28.25;;
15408;SDS011;7803;48.130;13.788;2023-12-14T15:40:29;32.83;;;27.48;;
15408;SDS011;7803;48.130;13.788;2023-12-14T15:43:31;32.80;;;27.88;;
15408;SDS011;7803;48.130;13.788;2023-12-14T15:46:33;31.25;;;26.90;;
15408;SDS011;7803;48.130;13.788;2023-12-14T15:49:37;30.40;;;26.45;;
15408;SDS011;7803;48.130;13.788;2023-12-14T15:52:39;31.83;;;26.48;;
15408;SDS011;7803;48.130;13.788;2023-12-14T15:55:41;30.50;;;26.38;;
15408;SDS011;7803;48.130;13.788;2023-12-14T15:58:43;30.92;;;26.48;;
15408;SDS011;7803;48.130;13.788;2023-12-14T16:01:45;33.10;;;27.88;;
15408;SDS011;7803;48.130;13.788;2023-12-14T16:04:49;32.38;;;27.55;;
15408;SDS011;7803;48.130;13.788;2023-12-14T16:07:50;33.97;;;28.60;;
15408;SDS011;7803;48.130;13.788;2023-12-14T16:10:52;32.85;;;27.98;;
15408;SDS011;7803;48.130;13.788;2023-12-14T16:13:55;32.58;;;28.63;;
15408;SDS011;7803;48.130;13.788;2023-12-14T16:16:57;32.80;;;28.33;;
15408;SDS011;7803;48.130;13.788;2023-12-14T16:20:01;34.47;;;29.33;;
15408;SDS011;7803;48.130;13.788;2023-12-14T16:23:05;33.10;;;28.38;;
15408;SDS011;7803;48.130;13.788;2023-12-14T16:26:06;33.15;;;29.25;;
15408;SDS011;7803;48.130;13.788;2023-12-14T16:29:12;32.80;;;28.40;;
15408;SDS011;7803;48.130;13.788;2023-12-14T16:32:14;34.97;;;28.02;;
15408;SDS011;7803;48.130;13.788;2023-12-14T16:35:18;33.30;;;28.92;;
15408;SDS011;7803;48.130;13.788;2023-12-14T16:38:20;31.65;;;28.25;;
15408;SDS011;7803;48.130;13.788;2023-12-14T16:41:22;33.22;;;28.33;;
15408;SDS011;7803;48.130;13.788;2023-12-14T16:44:24;32.22;;;28.10;;
15408;SDS011;7803;48.130;13.788;2023-12-14T16:47:26;32.83;;;29.15;;
15408;SDS011;7803;48.130;13.788;2023-12-14T16:50:30;30.73;;;27.40;;
15408;SDS011;7803;48.130;13.788;2023-12-14T16:53:32;32.78;;;28.42;;
15408;SDS011;7803;48.130;13.788;2023-12-14T16:56:34;32.00;;;27.95;;
15408;SDS011;7803;48.130;13.788;2023-12-14T16:59:36;31.23;;;26.55;;
15408;SDS011;7803;48.130;13.788;2023-12-14T17:02:39;30.77;;;26.90;;
15408;SDS011;7803;48.130;13.788;2023-12-14T17:05:42;31.02;;;27.25;;
15408;SDS011;7803;48.130;13.788;2023-12-14T17:08:44;32.20;;;27.85;;
15408;SDS011;7803;48.130;13.788;2023-12-14T17:11:46;29.88;;;26.58;;
15408;SDS011;7803;48.130;13.788;2023-12-14T17:14:48;30.15;;;26.40;;
15408;SDS011;7803;48.130;13.788;2023-12-14T17:17:50;28.83;;;25.48;;
15408;SDS011;7803;48.130;13.788;2023-12-14T17:20:54;30.85;;;26.67;;
15408;SDS011;7803;48.130;13.788;2023-12-14T17:23:56;29.80;;;25.90;;
15408;SDS011;7803;48.130;13.788;2023-12-14T17:26:58;29.05;;;25.27;;
15408;SDS011;7803;48.130;13.788;2023-12-14T17:30:00;28.70;;;25.00;;
15408;SDS011;7803;48.130;13.788;2023-12-14T17:33:03;29.77;;;25.98;;
15408;SDS011;7803;48.130;13.788;2023-12-14T17:36:08;28.77;;;25.02;;
15408;SDS011;7803;48.130;13.788;2023-12-14T17:39:10;28.30;;;25.02;;
15408;SDS011;7803;48.130;13.788;2023-12-14T17:42:13;28.40;;;25.10;;
15408;SDS011;7803;48.130;13.788;2023-12-14T17:45:15;28.90;;;24.80;;
15408;SDS011;7803;48.130;13.788;2023-12-14T17:48:17;27.90;;;24.52;;
15408;SDS011;7803;48.130;13.788;2023-12-14T17:51:20;27.85;;;24.52;;
15408;SDS011;7803;48.130;13.788;2023-12-14T17:54:22;27.25;;;24.23;;
15408;SDS011;7803;48.130;13.788;2023-12-14T17:57:25;26.92;;;23.70;;
15408;SDS011;7803;48.130;13.788;2023-12-14T18:00:27;27.52;;;23.67;;
15408;SDS011;7803;48.130;13.788;2023-12-14T18:03:29;24.77;;;22.17;;
15408;SDS011;7803;48.130;13.788;2023-12-14T18:06:33;25.80;;;22.85;;